createdAt,value
2022-11-17T00:00:42.865Z,11.02
2022-11-17T00:01:42.817Z,11.00
2022-11-17T00:02:42.891Z,11.02
2022-11-17T00:03:42.797Z,11.04
2022-11-17T00:04:42.784Z,11.05
2022-11-17T00:05:42.802Z,11.04
2022-11-17T00:06:42.836Z,11.04
2022-11-17T00:07:42.730Z,11.05
2022-11-17T00:08:42.744Z,11.04
2022-11-17T00:09:42.738Z,11.02
2022-11-17T00:10:42.703Z,11.00
2022-11-17T00:11:42.695Z,11.00
2022-11-17T00:12:42.686Z,10.99
2022-11-17T00:13:42.665Z,11.02
2022-11-17T00:14:42.667Z,11.02
2022-11-17T00:15:42.669Z,10.99
2022-11-17T00:16:42.639Z,11.00
2022-11-17T00:17:48.663Z,10.97
2022-11-17T00:18:42.617Z,11.00
2022-11-17T00:19:42.924Z,10.99
2022-11-17T00:20:42.603Z,10.97
2022-11-17T00:21:42.581Z,10.97
2022-11-17T00:22:42.570Z,10.96
2022-11-17T00:23:42.574Z,10.96
2022-11-17T00:24:42.546Z,10.97
2022-11-17T00:25:42.576Z,10.97
2022-11-17T00:26:42.531Z,10.96
2022-11-17T00:27:42.512Z,10.96
2022-11-17T00:28:42.511Z,10.97
2022-11-17T00:29:42.489Z,10.96
2022-11-17T00:30:44.070Z,10.94
2022-11-17T00:31:42.526Z,10.96
2022-11-17T00:32:42.468Z,10.93
2022-11-17T00:33:42.846Z,10.94
2022-11-17T00:34:42.437Z,10.94
2022-11-17T00:35:42.432Z,10.94
2022-11-17T00:36:42.426Z,10.94
2022-11-17T00:37:42.417Z,10.94
2022-11-17T00:38:42.399Z,10.93
2022-11-17T00:39:42.387Z,10.94
2022-11-17T00:40:42.378Z,10.94
2022-11-17T00:41:42.376Z,10.92
2022-11-17T00:42:42.388Z,10.92
2022-11-17T00:43:42.338Z,10.92
2022-11-17T00:44:42.342Z,10.92
2022-11-17T00:45:42.328Z,10.93
2022-11-17T00:46:42.325Z,10.92
2022-11-17T00:47:42.294Z,10.92
2022-11-17T00:48:42.308Z,10.90
2022-11-17T00:49:42.288Z,10.90
2022-11-17T00:50:42.281Z,10.92
2022-11-17T00:51:42.253Z,10.89
2022-11-17T00:52:42.260Z,10.90
2022-11-17T00:53:42.250Z,10.87
2022-11-17T00:54:42.248Z,10.87
2022-11-17T00:55:42.300Z,10.89
2022-11-17T00:56:42.205Z,10.87
2022-11-17T00:57:42.198Z,10.87
2022-11-17T00:58:42.190Z,10.89
2022-11-17T00:59:42.167Z,10.89
2022-11-17T01:00:42.181Z,10.87
2022-11-17T01:01:42.190Z,10.89
2022-11-17T01:02:42.137Z,10.89
2022-11-17T01:03:42.128Z,10.89
2022-11-17T01:04:42.118Z,10.86
2022-11-17T01:05:42.125Z,10.87
2022-11-17T01:06:42.125Z,10.86
2022-11-17T01:07:42.082Z,10.87
2022-11-17T01:08:42.073Z,10.86
2022-11-17T01:09:42.090Z,10.84
2022-11-17T01:10:42.062Z,10.84
2022-11-17T01:11:42.074Z,10.82
2022-11-17T01:12:42.027Z,10.84
2022-11-17T01:13:42.015Z,10.82
2022-11-17T01:14:42.015Z,10.84
2022-11-17T01:15:41.998Z,10.84
2022-11-17T01:16:42.005Z,10.86
2022-11-17T01:17:41.976Z,10.84
2022-11-17T01:18:41.977Z,10.84
2022-11-17T01:19:41.958Z,10.84
2022-11-17T01:20:41.945Z,10.86
2022-11-17T01:21:41.933Z,10.87
2022-11-17T01:22:41.949Z,10.87
2022-11-17T01:23:41.909Z,10.86
2022-11-17T01:24:41.908Z,10.86
2022-11-17T01:25:41.880Z,10.86
2022-11-17T01:26:41.896Z,10.84
2022-11-17T01:27:41.897Z,10.84
2022-11-17T01:28:41.870Z,10.86
2022-11-17T01:29:41.843Z,10.84
2022-11-17T01:30:41.842Z,10.84
2022-11-17T01:31:41.823Z,10.82
2022-11-17T01:32:41.824Z,10.82
2022-11-17T01:33:41.799Z,10.84
2022-11-17T01:34:41.805Z,10.84
2022-11-17T01:35:41.773Z,10.84
2022-11-17T01:36:41.764Z,10.84
2022-11-17T01:37:41.755Z,10.82
2022-11-17T01:38:41.760Z,10.82
2022-11-17T01:39:41.752Z,10.84
2022-11-17T01:40:41.728Z,10.84
2022-11-17T01:41:41.716Z,10.86
2022-11-17T01:42:41.710Z,10.87
2022-11-17T01:43:41.703Z,10.87
2022-11-17T01:44:41.695Z,10.84
2022-11-17T01:45:41.671Z,10.86
2022-11-17T01:46:41.680Z,10.82
2022-11-17T01:47:41.645Z,10.82
2022-11-17T01:48:41.649Z,10.84
2022-11-17T01:49:41.634Z,10.84
2022-11-17T01:50:41.642Z,10.84
2022-11-17T01:51:41.628Z,10.82
2022-11-17T01:52:42.374Z,10.84
2022-11-17T01:53:41.581Z,10.86
2022-11-17T01:54:41.592Z,10.84
2022-11-17T01:55:41.557Z,10.81
2022-11-17T01:56:41.562Z,10.81
2022-11-17T01:57:41.586Z,10.81
2022-11-17T01:58:41.536Z,10.82
2022-11-17T01:59:41.520Z,10.82
2022-11-17T02:00:41.522Z,10.86
2022-11-17T02:01:41.611Z,10.84
2022-11-17T02:02:41.501Z,10.84
2022-11-17T02:03:41.476Z,10.84
2022-11-17T02:04:41.465Z,10.84
2022-11-17T02:05:41.456Z,10.86
2022-11-17T02:06:41.461Z,10.89
2022-11-17T02:07:41.431Z,10.87
2022-11-17T02:08:41.453Z,10.86
2022-11-17T02:09:41.425Z,10.87
2022-11-17T06:00:44.788Z,10.44
2022-11-17T06:01:45.429Z,10.44
2022-11-17T06:02:45.422Z,10.44
2022-11-17T06:03:45.411Z,10.44
2022-11-17T06:04:45.456Z,10.42
2022-11-17T06:05:45.408Z,10.42
2022-11-17T06:06:45.398Z,10.42
2022-11-17T06:07:45.376Z,10.40
2022-11-17T06:08:45.361Z,10.42
2022-11-17T06:09:45.386Z,10.41
2022-11-17T06:10:45.349Z,10.44
2022-11-17T06:11:45.332Z,10.46
2022-11-17T06:12:45.315Z,10.46
2022-11-17T06:13:45.307Z,10.44
2022-11-17T06:14:45.288Z,10.44
2022-11-17T06:16:38.232Z,10.49
2022-11-17T06:17:39.162Z,10.51
2022-11-17T06:18:39.208Z,10.48
2022-11-17T06:19:39.158Z,10.48
2022-11-17T06:20:39.192Z,10.48
2022-11-17T06:22:09.678Z,10.49
2022-11-17T06:22:41.864Z,10.48
2022-11-17T06:23:39.161Z,10.49
2022-11-17T06:24:39.104Z,10.46
2022-11-17T06:25:39.073Z,10.49
2022-11-17T06:26:39.104Z,10.49
2022-11-17T06:27:39.060Z,10.49
2022-11-17T06:28:39.049Z,10.49
2022-11-17T06:29:43.915Z,10.49
2022-11-17T06:30:39.030Z,10.51
2022-11-17T06:31:39.012Z,10.46
2022-11-17T06:32:39.021Z,10.48
2022-11-17T06:33:39.109Z,10.44
2022-11-17T06:34:38.983Z,10.44
2022-11-17T06:35:38.971Z,10.48
2022-11-17T06:36:38.961Z,10.51
2022-11-17T06:37:38.951Z,10.48
2022-11-17T06:38:38.960Z,10.54
2022-11-17T06:39:38.928Z,10.51
2022-11-17T06:40:38.916Z,10.49
2022-11-17T06:41:38.920Z,10.48
2022-11-17T06:42:38.894Z,10.49
2022-11-17T06:43:39.076Z,10.51
2022-11-17T06:44:38.895Z,10.53
2022-11-17T06:45:38.862Z,10.51
2022-11-17T06:46:38.851Z,10.51
2022-11-17T06:47:38.836Z,10.54
2022-11-17T06:48:39.236Z,10.54
2022-11-17T06:49:38.815Z,10.54
2022-11-17T06:50:38.844Z,10.54
2022-11-17T06:51:43.777Z,10.57
2022-11-17T06:52:38.811Z,10.57
2022-11-17T06:53:38.805Z,10.57
2022-11-17T06:54:38.817Z,10.60
2022-11-17T06:55:38.794Z,10.60
2022-11-17T06:56:38.787Z,10.61
2022-11-17T06:57:38.756Z,10.61
2022-11-17T06:58:39.022Z,10.63
2022-11-17T06:59:38.737Z,10.63
2022-11-17T07:00:38.832Z,10.67
2022-11-17T07:01:38.737Z,10.68
2022-11-17T07:02:38.719Z,10.69
2022-11-17T07:03:38.695Z,10.71
2022-11-17T07:04:38.752Z,10.69
2022-11-17T07:05:40.327Z,10.71
2022-11-17T07:06:38.689Z,10.69
2022-11-17T07:07:38.746Z,10.69
2022-11-17T07:08:38.868Z,10.68
2022-11-17T07:09:38.640Z,10.69
2022-11-17T07:10:38.633Z,10.72
2022-11-17T07:11:38.610Z,10.71
2022-11-17T07:12:38.632Z,10.71
2022-11-17T07:13:38.582Z,10.72
2022-11-17T07:14:38.595Z,10.71
2022-11-17T07:15:38.568Z,10.71
2022-11-17T07:16:38.566Z,10.72
2022-11-17T07:17:38.540Z,10.71
2022-11-17T07:18:38.587Z,10.72
2022-11-17T07:19:38.525Z,10.72
2022-11-17T07:20:38.604Z,10.71
2022-11-17T07:21:38.494Z,10.72
2022-11-17T07:22:38.498Z,10.72
2022-11-17T07:23:38.495Z,10.71
2022-11-17T07:24:38.476Z,10.72
2022-11-17T07:25:38.481Z,10.71
2022-11-17T07:26:38.467Z,10.71
2022-11-17T07:27:38.433Z,10.72
2022-11-17T07:28:38.803Z,10.72
2022-11-17T07:29:38.433Z,10.74
2022-11-17T07:30:38.411Z,10.76
2022-11-17T07:31:38.394Z,10.78
2022-11-17T07:32:38.411Z,10.79
2022-11-17T07:33:38.370Z,10.78
2022-11-17T07:34:38.383Z,10.79
2022-11-17T07:35:38.353Z,10.84
2022-11-17T07:36:38.351Z,10.87
2022-11-17T07:37:38.329Z,10.87
2022-11-17T07:38:38.852Z,10.87
2022-11-17T07:39:38.312Z,10.90
2022-11-17T07:40:38.333Z,10.90
2022-11-17T07:41:38.281Z,10.93
2022-11-17T07:42:38.310Z,10.96
2022-11-17T07:43:38.281Z,10.97
2022-11-17T07:44:38.265Z,10.96
2022-11-17T07:45:38.238Z,10.96
2022-11-17T07:46:38.256Z,11.02
2022-11-17T07:47:38.235Z,11.04
2022-11-17T07:48:38.532Z,11.07
2022-11-17T07:49:38.198Z,11.05
2022-11-17T07:50:38.199Z,11.05
2022-11-17T07:51:38.180Z,11.08
2022-11-17T07:52:41.482Z,11.08
2022-11-17T07:53:38.164Z,11.11
2022-11-17T07:54:38.151Z,11.14
2022-11-17T07:55:38.124Z,11.15
2022-11-17T07:56:38.131Z,11.15
2022-11-17T07:57:38.131Z,11.17
2022-11-17T07:58:38.600Z,11.18
2022-11-17T07:59:38.111Z,11.23
2022-11-17T08:00:38.148Z,11.26
2022-11-17T08:01:38.062Z,11.27
2022-11-17T08:02:38.064Z,11.29
2022-11-17T08:03:38.167Z,11.30
2022-11-17T08:04:38.060Z,11.32
2022-11-17T08:05:43.077Z,11.33
2022-11-17T08:06:38.028Z,11.37
2022-11-17T08:07:38.067Z,11.41
2022-11-17T08:08:38.713Z,11.43
2022-11-17T08:09:37.983Z,11.45
2022-11-17T08:10:37.982Z,11.47
2022-11-17T08:11:37.964Z,11.48
2022-11-17T08:12:37.961Z,11.51
2022-11-17T08:13:37.936Z,11.52
2022-11-17T08:14:37.961Z,11.55
2022-11-17T08:15:38.541Z,11.55
2022-11-17T08:16:37.924Z,11.57
2022-11-17T08:17:37.898Z,11.60
2022-11-17T08:18:38.192Z,11.60
2022-11-17T08:19:37.869Z,11.62
2022-11-17T08:20:38.220Z,11.63
2022-11-17T08:21:37.855Z,11.63
2022-11-17T08:22:37.835Z,11.66
2022-11-17T08:23:37.838Z,11.66
2022-11-17T08:24:37.839Z,11.68
2022-11-17T08:25:37.819Z,11.68
2022-11-17T08:26:37.823Z,11.66
2022-11-17T08:27:37.805Z,11.70
2022-11-17T08:28:38.320Z,11.69
2022-11-17T08:29:37.784Z,11.70
2022-11-17T08:30:37.747Z,11.69
2022-11-17T08:31:37.816Z,11.70
2022-11-17T08:32:37.735Z,11.72
2022-11-17T08:33:37.740Z,11.70
2022-11-17T08:34:37.749Z,11.72
2022-11-17T08:35:37.895Z,11.69
2022-11-17T08:36:37.710Z,11.72
2022-11-17T08:37:37.689Z,11.70
2022-11-17T08:38:37.845Z,11.72
2022-11-17T08:39:37.666Z,11.73
2022-11-17T08:40:37.642Z,11.73
2022-11-17T08:41:37.661Z,11.72
2022-11-17T08:42:37.630Z,11.75
2022-11-17T08:43:37.630Z,11.77
2022-11-17T08:44:37.622Z,11.77
2022-11-17T08:45:37.617Z,11.78
2022-11-17T08:46:37.580Z,11.78
2022-11-17T08:47:37.580Z,11.80
2022-11-17T08:48:37.988Z,11.80
2022-11-17T08:49:37.598Z,11.80
2022-11-17T08:50:37.552Z,11.83
2022-11-17T08:51:37.541Z,11.83
2022-11-17T08:52:37.519Z,11.84
2022-11-17T08:53:37.524Z,11.87
2022-11-17T08:54:37.497Z,11.88
2022-11-17T08:55:41.030Z,11.90
2022-11-17T08:56:37.499Z,11.91
2022-11-17T08:57:37.474Z,11.95
2022-11-17T08:58:37.880Z,11.95
2022-11-17T08:59:37.446Z,11.95
2022-11-17T09:00:37.493Z,11.99
2022-11-17T09:01:37.525Z,12.02
2022-11-17T09:02:37.406Z,12.02
2022-11-17T09:03:37.516Z,12.02
2022-11-17T09:04:37.386Z,12.03
2022-11-17T09:05:37.389Z,12.04
2022-11-17T09:06:37.354Z,12.06
2022-11-17T09:07:37.460Z,12.06
2022-11-17T09:08:46.760Z,12.06
2022-11-17T09:09:37.388Z,12.07
2022-11-17T09:10:37.297Z,12.10
2022-11-17T09:11:37.301Z,12.09
2022-11-17T09:12:37.274Z,12.12
2022-11-17T09:13:37.306Z,12.10
2022-11-17T09:14:37.259Z,12.12
2022-11-17T09:15:37.256Z,12.15
2022-11-17T09:16:37.233Z,12.15
2022-11-17T09:17:37.240Z,12.15
2022-11-17T09:18:37.716Z,12.13
2022-11-17T09:19:37.385Z,12.17
2022-11-17T09:20:41.443Z,12.13
2022-11-17T09:21:37.199Z,12.13
2022-11-17T09:22:37.177Z,12.15
2022-11-17T09:23:37.643Z,12.15
2022-11-17T09:24:37.164Z,12.13
2022-11-17T09:25:37.158Z,12.15
2022-11-17T09:26:37.140Z,12.15
2022-11-17T09:27:37.148Z,12.17
2022-11-17T09:28:37.515Z,12.15
2022-11-17T09:29:37.109Z,12.17
2022-11-17T09:30:37.121Z,12.17
2022-11-17T09:31:37.132Z,12.18
2022-11-17T09:32:37.101Z,12.18
2022-11-17T09:33:37.091Z,12.17
2022-11-17T09:34:37.267Z,12.20
2022-11-17T09:35:37.055Z,12.17
2022-11-17T09:36:37.038Z,12.18
2022-11-17T09:38:35.194Z,12.17
2022-11-17T09:39:35.767Z,12.20
2022-11-17T09:40:38.053Z,12.21
2022-11-17T09:41:35.756Z,12.20
2022-11-17T09:42:35.777Z,12.21
2022-11-17T09:43:35.789Z,12.22
2022-11-17T09:44:35.732Z,12.24
2022-11-17T09:45:35.765Z,12.27
2022-11-17T09:46:35.756Z,12.28
2022-11-17T09:47:35.689Z,12.27
2022-11-17T09:48:41.110Z,12.29
2022-11-17T09:49:35.668Z,12.31
2022-11-17T09:50:35.659Z,12.35
2022-11-17T09:51:35.666Z,12.32
2022-11-17T09:52:35.656Z,12.36
2022-11-17T09:53:35.981Z,12.36
2022-11-17T09:54:35.629Z,12.39
2022-11-17T09:55:35.611Z,12.42
2022-11-17T09:56:35.623Z,12.45
2022-11-17T09:57:35.606Z,12.46
2022-11-17T09:58:36.053Z,12.47
2022-11-17T09:59:35.729Z,12.49
2022-11-17T10:00:35.581Z,12.46
2022-11-17T10:01:35.576Z,12.47
2022-11-17T10:02:35.614Z,12.49
2022-11-17T10:03:40.306Z,12.50
2022-11-17T10:04:35.521Z,12.53
2022-11-17T10:05:35.495Z,12.54
2022-11-17T10:06:35.523Z,12.54
2022-11-17T10:07:35.607Z,12.55
2022-11-17T10:08:35.499Z,12.54
2022-11-17T10:09:35.446Z,12.57
2022-11-17T10:10:35.464Z,12.58
2022-11-17T10:11:35.436Z,12.60
2022-11-17T10:12:35.431Z,12.58
2022-11-17T10:13:35.696Z,12.61
2022-11-17T10:14:35.406Z,12.61
2022-11-17T10:15:35.406Z,12.64
2022-11-17T10:16:36.207Z,12.62
2022-11-17T10:17:35.360Z,12.62
2022-11-17T10:18:38.115Z,12.65
2022-11-17T10:19:35.504Z,12.65
2022-11-17T10:20:35.364Z,12.65
2022-11-17T10:21:35.323Z,12.67
2022-11-17T10:22:35.316Z,12.68
2022-11-17T10:23:37.793Z,12.67
2022-11-17T10:24:35.356Z,12.68
2022-11-17T10:25:35.283Z,12.70
2022-11-17T10:26:35.345Z,12.73
2022-11-17T10:27:35.255Z,12.70
2022-11-17T10:28:35.263Z,12.72
2022-11-17T10:29:35.234Z,12.70
2022-11-17T10:30:35.259Z,12.68
2022-11-17T10:31:35.208Z,12.70
2022-11-17T10:32:35.224Z,12.70
2022-11-17T10:33:35.459Z,12.70
2022-11-17T10:34:40.582Z,12.70
2022-11-17T10:35:35.171Z,12.73
2022-11-17T10:36:35.179Z,12.72
2022-11-17T10:37:35.144Z,12.73
2022-11-17T10:38:35.172Z,12.75
2022-11-17T10:39:35.123Z,12.78
2022-11-17T10:40:35.165Z,12.78
2022-11-17T10:41:35.134Z,12.78
2022-11-17T10:42:35.111Z,12.80
2022-11-17T10:43:35.494Z,12.83
2022-11-17T10:44:35.085Z,12.79
2022-11-17T10:45:35.057Z,12.80
2022-11-17T10:46:44.944Z,12.80
2022-11-17T10:47:35.043Z,12.79
2022-11-17T10:48:35.039Z,12.80
2022-11-17T10:49:35.014Z,12.80
2022-11-17T10:50:35.017Z,12.80
2022-11-17T10:51:35.011Z,12.83
2022-11-17T10:52:35.022Z,12.83
2022-11-17T10:53:41.105Z,12.85
2022-11-17T10:54:34.980Z,12.85
2022-11-17T10:55:34.945Z,12.86
2022-11-17T10:56:34.956Z,12.87
2022-11-17T10:57:34.940Z,12.86
2022-11-17T10:58:34.935Z,12.87
2022-11-17T10:59:34.911Z,12.90
2022-11-17T11:00:34.922Z,12.90
2022-11-17T11:01:35.086Z,12.94
2022-11-17T11:02:34.927Z,12.95
2022-11-17T11:03:35.390Z,12.95
2022-11-17T11:04:34.892Z,12.98
2022-11-17T11:05:34.847Z,13.00
2022-11-17T11:06:34.855Z,13.03
2022-11-17T11:07:34.859Z,13.05
2022-11-17T11:08:34.837Z,13.04
2022-11-17T11:09:34.886Z,13.09
2022-11-17T11:10:34.820Z,13.09
2022-11-17T11:11:36.458Z,13.12
2022-11-17T11:12:34.789Z,13.12
2022-11-17T11:13:34.772Z,13.15
2022-11-17T11:14:34.758Z,13.18
2022-11-17T11:15:34.809Z,13.18
2022-11-17T11:16:34.739Z,13.18
2022-11-17T11:17:34.763Z,13.20
2022-11-17T11:18:34.725Z,13.20
2022-11-17T11:19:34.704Z,13.22
2022-11-17T11:20:34.704Z,13.20
2022-11-17T11:21:34.666Z,13.22
2022-11-17T11:22:34.685Z,13.22
2022-11-17T11:23:34.663Z,13.20
2022-11-17T11:24:34.671Z,13.20
2022-11-17T11:25:34.622Z,13.20
2022-11-17T11:26:34.636Z,13.18
2022-11-17T11:27:34.600Z,13.13
2022-11-17T11:28:34.617Z,13.12
2022-11-17T11:29:34.602Z,13.09
2022-11-17T11:30:34.575Z,13.05
2022-11-17T11:31:34.584Z,13.01
2022-11-17T11:32:34.569Z,13.03
2022-11-17T11:33:34.533Z,13.01
2022-11-17T11:34:34.536Z,13.00
2022-11-17T11:35:34.547Z,12.97
2022-11-17T11:36:34.525Z,12.94
2022-11-17T11:37:34.489Z,12.93
2022-11-17T11:38:34.502Z,12.91
2022-11-17T11:39:34.466Z,12.87
2022-11-17T11:40:34.482Z,12.85
2022-11-17T11:41:34.470Z,12.79
2022-11-17T11:42:34.460Z,12.78
2022-11-17T11:43:34.442Z,12.73
2022-11-17T11:44:34.431Z,12.72
2022-11-17T11:45:34.408Z,12.65
2022-11-17T11:46:34.417Z,12.62
2022-11-17T11:47:34.387Z,12.61
2022-11-17T11:49:31.272Z,12.55
2022-11-17T11:50:41.729Z,12.55
2022-11-17T11:51:32.322Z,12.55
2022-11-17T11:52:32.236Z,12.55
2022-11-17T11:53:32.221Z,12.55
2022-11-17T11:54:32.243Z,12.57
2022-11-17T11:55:32.193Z,12.58
2022-11-17T11:56:32.196Z,12.58
2022-11-17T11:57:32.177Z,12.58
2022-11-17T11:58:32.180Z,12.58
2022-11-17T11:59:32.143Z,12.60
2022-11-17T12:00:32.189Z,12.60
2022-11-17T12:01:32.132Z,12.58
2022-11-17T12:02:32.162Z,12.60
2022-11-17T12:03:32.205Z,12.62
2022-11-17T12:04:32.116Z,12.65
2022-11-17T12:05:32.136Z,12.65
2022-11-17T12:06:32.093Z,12.67
2022-11-17T12:07:32.122Z,12.68
2022-11-17T12:08:32.074Z,12.70
2022-11-17T12:09:32.042Z,12.72
2022-11-17T12:10:32.048Z,12.73
2022-11-17T12:11:32.066Z,12.76
2022-11-17T12:12:32.041Z,12.79
2022-11-17T12:13:32.010Z,12.83
2022-11-17T12:14:32.015Z,12.87
2022-11-17T12:15:31.972Z,12.93
2022-11-17T12:16:38.020Z,12.97
2022-11-17T12:17:31.955Z,13.00
2022-11-17T12:18:31.966Z,13.05
2022-11-17T12:19:31.938Z,13.12
2022-11-17T12:20:31.939Z,13.16
2022-11-17T12:21:31.911Z,13.23
2022-11-17T12:22:31.960Z,13.27
2022-11-17T12:23:31.896Z,13.35
2022-11-17T12:24:31.926Z,13.39
2022-11-17T12:25:31.884Z,13.44
2022-11-17T12:26:31.899Z,13.52
2022-11-17T12:27:31.853Z,13.57
2022-11-17T12:28:31.867Z,13.59
2022-11-17T12:29:31.849Z,13.62
2022-11-17T12:30:31.842Z,13.65
2022-11-17T12:31:31.807Z,13.72
2022-11-17T12:32:31.839Z,13.71
2022-11-17T12:33:31.785Z,13.75
2022-11-17T12:34:31.825Z,13.77
2022-11-17T12:35:31.775Z,13.78
2022-11-17T12:36:31.876Z,13.81
2022-11-17T12:37:31.754Z,13.83
2022-11-17T12:38:31.774Z,13.83
2022-11-17T12:39:31.726Z,13.83
2022-11-17T12:40:31.725Z,13.85
2022-11-17T12:41:31.723Z,13.85
2022-11-17T12:42:31.800Z,13.85
2022-11-17T12:43:31.677Z,13.86
2022-11-17T12:44:31.675Z,13.86
2022-11-17T12:45:31.661Z,13.83
2022-11-17T12:46:31.675Z,13.86
2022-11-17T12:47:31.643Z,13.86
2022-11-17T12:48:34.411Z,13.85
2022-11-17T12:49:31.618Z,13.85
2022-11-17T12:50:31.645Z,13.85
2022-11-17T12:51:31.587Z,13.85
2022-11-17T12:52:31.602Z,13.85
2022-11-17T12:53:31.566Z,13.79
2022-11-17T12:54:31.584Z,13.81
2022-11-17T12:55:31.544Z,13.79
2022-11-17T12:56:31.566Z,13.78
2022-11-17T12:57:31.526Z,13.75
2022-11-17T12:58:31.561Z,13.75
2022-11-17T12:59:31.535Z,13.77
2022-11-17T13:00:31.501Z,13.79
2022-11-17T13:01:31.607Z,13.79
2022-11-17T13:02:31.469Z,13.83
2022-11-17T13:03:31.481Z,13.85
2022-11-17T13:04:31.489Z,13.89
2022-11-17T13:05:31.453Z,13.87
2022-11-17T13:06:36.412Z,13.85
2022-11-17T13:07:31.480Z,13.85
2022-11-17T13:08:31.473Z,13.85
2022-11-17T13:09:31.422Z,13.86
2022-11-17T13:10:31.412Z,13.86
2022-11-17T13:11:31.393Z,13.83
2022-11-17T13:12:31.360Z,13.83
2022-11-17T13:13:31.371Z,13.81
2022-11-17T13:14:31.344Z,13.81
2022-11-17T13:15:31.411Z,13.81
2022-11-17T13:16:31.349Z,13.78
2022-11-17T13:17:31.332Z,13.78
2022-11-17T13:18:31.406Z,13.77
2022-11-17T13:19:31.323Z,13.78
2022-11-17T13:20:31.277Z,13.78
2022-11-17T13:21:31.300Z,13.78
2022-11-17T13:22:31.288Z,13.77
2022-11-17T13:23:31.254Z,13.77
2022-11-17T13:24:31.236Z,13.74
2022-11-17T13:25:31.237Z,13.71
2022-11-17T13:26:31.235Z,13.70
2022-11-17T13:27:31.244Z,13.70
2022-11-17T13:28:31.198Z,13.67
2022-11-17T13:29:31.231Z,13.67
2022-11-17T13:30:31.188Z,13.67
2022-11-17T13:31:31.183Z,13.65
2022-11-17T13:32:31.146Z,13.65
2022-11-17T13:33:35.416Z,13.63
2022-11-17T13:34:31.129Z,13.63
2022-11-17T13:35:31.149Z,13.65
2022-11-17T13:36:31.129Z,13.63
2022-11-17T13:37:31.121Z,13.63
2022-11-17T13:38:31.087Z,13.63
2022-11-17T13:39:31.086Z,13.59
2022-11-17T13:40:31.083Z,13.57
2022-11-17T13:41:31.070Z,13.54
2022-11-17T13:42:31.045Z,13.52
2022-11-17T13:43:31.043Z,13.47
2022-11-17T13:44:31.028Z,13.44
2022-11-17T13:45:31.029Z,13.39
2022-11-17T13:46:31.026Z,13.38
2022-11-17T13:47:30.999Z,13.33
2022-11-17T13:48:30.976Z,13.33
2022-11-17T13:49:31.001Z,13.31
2022-11-17T13:50:30.987Z,13.27
2022-11-17T13:51:30.964Z,13.27
2022-11-17T13:52:35.235Z,13.22
2022-11-17T13:53:30.951Z,13.19
2022-11-17T13:54:30.925Z,13.18
2022-11-17T13:55:30.936Z,13.16
2022-11-17T13:56:30.898Z,13.13
2022-11-17T13:57:30.892Z,13.13
2022-11-17T13:58:30.881Z,13.12
2022-11-17T13:59:30.900Z,13.09
2022-11-17T14:00:30.859Z,13.12
2022-11-17T14:01:30.926Z,13.09
2022-11-17T14:02:30.910Z,13.11
2022-11-17T14:03:30.979Z,13.09
2022-11-17T14:04:30.807Z,13.05
2022-11-17T14:05:30.818Z,13.04
2022-11-17T14:06:30.800Z,13.09
2022-11-17T14:07:30.813Z,13.08
2022-11-17T14:08:30.765Z,13.04
2022-11-17T14:09:30.766Z,13.01
2022-11-17T14:10:30.764Z,13.01
2022-11-17T14:11:30.755Z,13.01
2022-11-17T14:12:30.768Z,13.00
2022-11-17T14:13:30.731Z,13.00
2022-11-17T14:14:30.700Z,12.98
2022-11-17T14:15:30.706Z,12.97
2022-11-17T14:16:30.685Z,12.97
2022-11-17T14:17:30.681Z,12.94
2022-11-17T14:18:30.675Z,12.93
2022-11-17T14:19:30.676Z,12.93
2022-11-17T14:20:30.638Z,12.91
2022-11-17T14:21:30.652Z,12.90
2022-11-17T14:22:31.997Z,12.90
2022-11-17T14:23:30.618Z,12.87
2022-11-17T14:24:30.593Z,12.90
2022-11-17T14:25:30.615Z,12.90
2022-11-17T14:26:30.580Z,12.87
2022-11-17T14:27:30.571Z,12.85
2022-11-17T14:28:30.549Z,12.83
2022-11-17T14:29:30.547Z,12.83
2022-11-17T14:30:30.540Z,12.83
2022-11-17T14:31:30.542Z,12.80
2022-11-17T14:32:30.514Z,12.82
2022-11-17T14:33:30.511Z,12.80
2022-11-17T14:34:30.517Z,12.79
2022-11-17T14:35:30.546Z,12.79
2022-11-17T14:36:30.466Z,12.75
2022-11-17T14:37:30.481Z,12.75
2022-11-17T14:38:30.452Z,12.73
2022-11-17T14:39:30.450Z,12.75
2022-11-17T14:40:30.420Z,12.73
2022-11-17T14:41:30.445Z,12.70
2022-11-17T14:42:35.853Z,12.70
2022-11-17T14:43:30.418Z,12.67
2022-11-17T14:44:30.408Z,12.65
2022-11-17T14:45:30.400Z,12.62
2022-11-17T14:46:30.382Z,12.61
2022-11-17T14:47:30.369Z,12.58
2022-11-17T14:48:30.340Z,12.57
2022-11-17T14:49:30.339Z,12.57
2022-11-17T14:50:30.339Z,12.54
2022-11-17T14:51:30.357Z,12.50
2022-11-17T14:52:30.391Z,12.47
2022-11-17T14:53:30.311Z,12.46
2022-11-17T14:54:30.271Z,12.43
2022-11-17T14:55:30.281Z,12.40
2022-11-17T14:56:30.252Z,12.37
2022-11-17T14:57:30.267Z,12.35
2022-11-17T14:58:30.254Z,12.32
2022-11-17T14:59:30.239Z,12.28
2022-11-17T15:00:30.238Z,12.28
2022-11-17T15:01:30.227Z,12.27
2022-11-17T15:02:30.198Z,12.22
2022-11-17T15:03:30.313Z,12.22
2022-11-17T15:05:30.208Z,12.20
2022-11-17T15:06:30.175Z,12.12
2022-11-17T15:07:30.256Z,12.06
2022-11-17T15:08:30.142Z,12.00
2022-11-17T15:09:30.180Z,11.97
2022-11-17T15:10:30.185Z,11.94
2022-11-17T15:11:33.942Z,11.47
2022-11-17T15:12:30.098Z,10.48
2022-11-17T15:13:31.096Z,9.37
2022-11-17T15:14:30.065Z,8.63
2022-11-17T15:15:30.080Z,7.94
2022-11-17T15:16:30.757Z,7.43
2022-11-17T15:17:30.079Z,7.11
2022-11-17T15:18:30.036Z,6.97
2022-11-17T15:19:30.031Z,6.97
2022-11-17T15:20:30.002Z,7.07
2022-11-17T15:21:30.014Z,7.21
2022-11-17T15:22:30.001Z,7.31
2022-11-17T15:23:30.400Z,7.40
2022-11-17T15:24:29.975Z,7.48
2022-11-17T15:25:29.961Z,7.53
2022-11-17T15:26:29.938Z,7.54
2022-11-17T15:27:29.933Z,7.61
2022-11-17T15:28:30.457Z,7.73
2022-11-17T15:29:29.913Z,7.82
2022-11-17T15:30:29.909Z,7.85
2022-11-17T15:31:29.936Z,7.87
2022-11-17T15:32:29.900Z,7.90
2022-11-17T15:33:29.900Z,7.93
2022-11-17T15:34:29.848Z,8.01
2022-11-17T15:35:29.847Z,8.13
2022-11-17T15:36:29.847Z,8.24
2022-11-17T15:37:29.841Z,8.31
2022-11-17T15:38:29.833Z,8.34
2022-11-17T15:39:29.816Z,8.33
2022-11-17T15:40:29.792Z,8.33
2022-11-17T15:41:32.880Z,8.30
2022-11-17T15:42:29.780Z,8.27
2022-11-17T15:43:29.782Z,8.27
2022-11-17T15:44:29.776Z,8.36
2022-11-17T15:45:29.791Z,8.44
2022-11-17T15:46:29.734Z,8.52
2022-11-17T15:47:29.722Z,8.61
2022-11-17T15:48:29.703Z,8.70
2022-11-17T15:49:29.713Z,8.74
2022-11-17T15:50:29.698Z,8.82
2022-11-17T15:51:29.697Z,8.82
2022-11-17T15:52:56.414Z,8.84
2022-11-17T15:53:29.674Z,8.87
2022-11-17T15:54:29.633Z,8.88
2022-11-17T15:55:29.652Z,8.95
2022-11-17T15:56:29.638Z,8.99
2022-11-17T15:57:29.628Z,9.00
2022-11-17T15:58:29.613Z,9.03
2022-11-17T15:59:29.596Z,9.08
2022-11-17T16:00:29.658Z,9.08
2022-11-17T16:01:29.660Z,9.11
2022-11-17T16:02:29.571Z,9.14
2022-11-17T16:03:29.561Z,9.14
2022-11-17T16:04:29.533Z,9.16
2022-11-17T16:05:29.541Z,9.18
2022-11-17T16:06:29.505Z,9.19
2022-11-17T16:07:29.679Z,9.14
2022-11-17T16:08:29.578Z,9.16
2022-11-17T16:09:29.545Z,9.14
2022-11-17T16:10:29.545Z,9.16
2022-11-17T16:11:29.603Z,9.19
2022-11-17T16:12:29.504Z,9.19
2022-11-17T16:13:29.537Z,9.25
2022-11-17T16:14:29.479Z,9.26
2022-11-17T16:15:29.495Z,9.25
2022-11-17T16:16:29.461Z,9.26
2022-11-17T16:17:29.456Z,9.23
2022-11-17T16:18:29.441Z,9.23
2022-11-17T16:19:29.457Z,9.25
2022-11-17T16:20:29.510Z,9.26
2022-11-17T16:21:29.417Z,9.26
2022-11-17T16:22:29.398Z,9.28
2022-11-17T16:23:29.408Z,9.31
2022-11-17T16:24:29.680Z,9.32
2022-11-17T16:25:29.380Z,9.32
2022-11-17T16:26:29.356Z,9.34
2022-11-17T16:27:29.355Z,9.36
2022-11-17T16:28:29.335Z,9.34
2022-11-17T16:29:29.368Z,9.36
2022-11-17T16:30:35.212Z,9.36
2022-11-17T16:31:29.333Z,9.34
2022-11-17T16:32:29.300Z,9.36
2022-11-17T16:33:29.392Z,9.37
2022-11-17T16:34:29.262Z,9.37
2022-11-17T16:35:29.264Z,9.39
2022-11-17T16:36:34.547Z,9.39
2022-11-17T16:37:29.324Z,9.39
2022-11-17T16:38:29.239Z,9.40
2022-11-17T16:39:29.226Z,9.39
2022-11-17T16:40:29.258Z,9.39
2022-11-17T16:41:29.207Z,9.39
2022-11-17T16:42:29.206Z,9.40
2022-11-17T16:43:29.199Z,9.41
2022-11-17T16:44:29.251Z,9.40
2022-11-17T16:45:29.164Z,9.40
2022-11-17T16:46:29.185Z,9.41
2022-11-17T16:47:29.164Z,9.40
2022-11-17T16:48:29.125Z,9.41
2022-11-17T16:49:29.155Z,9.40